sensor_id;sensor_type;location;lat;lon;timestamp;P1;durP1;ratioP1;P2;durP2;ratioP2
19679;SDS011;9989;48.962;9.182;2023-06-22T00:02:15;10.10;;;5.60;;
19679;SDS011;9989;48.962;9.182;2023-06-22T00:04:40;10.63;;;6.10;;
19679;SDS011;9989;48.962;9.182;2023-06-22T00:07:06;11.67;;;6.03;;
19679;SDS011;9989;48.962;9.182;2023-06-22T00:09:32;10.73;;;6.33;;
19679;SDS011;9989;48.962;9.182;2023-06-22T00:11:58;11.73;;;6.80;;
19679;SDS011;9989;48.962;9.182;2023-06-22T00:14:24;11.30;;;6.73;;
19679;SDS011;9989;48.962;9.182;2023-06-22T00:16:49;12.30;;;6.57;;
19679;SDS011;9989;48.962;9.182;2023-06-22T00:19:22;13.77;;;7.50;;
19679;SDS011;9989;48.962;9.182;2023-06-22T00:21:48;12.60;;;6.63;;
19679;SDS011;9989;48.962;9.182;2023-06-22T00:24:18;11.27;;;6.47;;
19679;SDS011;9989;48.962;9.182;2023-06-22T00:26:47;12.57;;;6.60;;
19679;SDS011;9989;48.962;9.182;2023-06-22T00:29:13;13.80;;;6.97;;
19679;SDS011;9989;48.962;9.182;2023-06-22T00:31:39;11.77;;;6.93;;
19679;SDS011;9989;48.962;9.182;2023-06-22T00:34:05;13.13;;;6.47;;
19679;SDS011;9989;48.962;9.182;2023-06-22T00:36:31;13.20;;;6.77;;
19679;SDS011;9989;48.962;9.182;2023-06-22T00:38:57;15.23;;;6.10;;
19679;SDS011;9989;48.962;9.182;2023-06-22T00:41:23;12.73;;;6.20;;
19679;SDS011;9989;48.962;9.182;2023-06-22T00:43:48;12.37;;;6.93;;
19679;SDS011;9989;48.962;9.182;2023-06-22T00:46:14;12.90;;;5.80;;
19679;SDS011;9989;48.962;9.182;2023-06-22T00:48:40;9.67;;;6.00;;
19679;SDS011;9989;48.962;9.182;2023-06-22T00:51:08;9.73;;;5.50;;
19679;SDS011;9989;48.962;9.182;2023-06-22T00:53:35;11.00;;;6.27;;
19679;SDS011;9989;48.962;9.182;2023-06-22T00:56:02;9.80;;;5.63;;
19679;SDS011;9989;48.962;9.182;2023-06-22T00:58:28;9.83;;;6.00;;
19679;SDS011;9989;48.962;9.182;2023-06-22T01:00:54;12.90;;;6.77;;
19679;SDS011;9989;48.962;9.182;2023-06-22T01:03:20;9.17;;;5.73;;
19679;SDS011;9989;48.962;9.182;2023-06-22T01:05:45;11.43;;;6.70;;
19679;SDS011;9989;48.962;9.182;2023-06-22T01:11:01;11.67;;;6.80;;
19679;SDS011;9989;48.962;9.182;2023-06-22T01:16:29;12.07;;;7.13;;
19679;SDS011;9989;48.962;9.182;2023-06-22T01:18:57;10.03;;;6.23;;
19679;SDS011;9989;48.962;9.182;2023-06-22T01:21:26;11.03;;;5.87;;
19679;SDS011;9989;48.962;9.182;2023-06-22T01:29:04;11.73;;;6.87;;
19679;SDS011;9989;48.962;9.182;2023-06-22T01:31:31;10.43;;;6.20;;
19679;SDS011;9989;48.962;9.182;2023-06-22T01:34:01;11.70;;;6.63;;
19679;SDS011;9989;48.962;9.182;2023-06-22T01:36:29;11.63;;;6.80;;
19679;SDS011;9989;48.962;9.182;2023-06-22T01:38:57;12.80;;;6.23;;
19679;SDS011;9989;48.962;9.182;2023-06-22T01:41:27;12.33;;;6.57;;
19679;SDS011;9989;48.962;9.182;2023-06-22T01:43:55;13.27;;;6.60;;
19679;SDS011;9989;48.962;9.182;2023-06-22T01:46:21;12.23;;;6.13;;
19679;SDS011;9989;48.962;9.182;2023-06-22T01:48:48;13.53;;;6.07;;
19679;SDS011;9989;48.962;9.182;2023-06-22T01:51:15;12.30;;;6.03;;
19679;SDS011;9989;48.962;9.182;2023-06-22T01:53:41;11.67;;;6.80;;
19679;SDS011;9989;48.962;9.182;2023-06-22T01:56:07;10.97;;;6.50;;
19679;SDS011;9989;48.962;9.182;2023-06-22T01:58:33;11.10;;;6.17;;
19679;SDS011;9989;48.962;9.182;2023-06-22T02:04:02;12.57;;;6.17;;
19679;SDS011;9989;48.962;9.182;2023-06-22T02:06:37;11.27;;;5.83;;
19679;SDS011;9989;48.962;9.182;2023-06-22T02:09:08;10.37;;;6.10;;
19679;SDS011;9989;48.962;9.182;2023-06-22T02:11:37;13.27;;;6.57;;
19679;SDS011;9989;48.962;9.182;2023-06-22T02:14:06;11.60;;;5.87;;
19679;SDS011;9989;48.962;9.182;2023-06-22T02:16:32;11.10;;;6.33;;
19679;SDS011;9989;48.962;9.182;2023-06-22T02:18:58;10.90;;;6.60;;
19679;SDS011;9989;48.962;9.182;2023-06-22T02:21:28;11.37;;;6.20;;
19679;SDS011;9989;48.962;9.182;2023-06-22T02:23:54;10.40;;;5.87;;
19679;SDS011;9989;48.962;9.182;2023-06-22T02:26:20;11.50;;;6.20;;
19679;SDS011;9989;48.962;9.182;2023-06-22T02:28:46;8.87;;;5.40;;
19679;SDS011;9989;48.962;9.182;2023-06-22T02:31:12;10.53;;;5.70;;
19679;SDS011;9989;48.962;9.182;2023-06-22T02:33:37;10.17;;;5.57;;
19679;SDS011;9989;48.962;9.182;2023-06-22T02:36:03;10.73;;;5.90;;
19679;SDS011;9989;48.962;9.182;2023-06-22T02:38:30;10.80;;;6.33;;
19679;SDS011;9989;48.962;9.182;2023-06-22T02:40:58;11.27;;;6.57;;
19679;SDS011;9989;48.962;9.182;2023-06-22T02:43:24;10.20;;;5.97;;
19679;SDS011;9989;48.962;9.182;2023-06-22T02:45:49;10.57;;;5.90;;
19679;SDS011;9989;48.962;9.182;2023-06-22T02:48:15;11.10;;;5.43;;
19679;SDS011;9989;48.962;9.182;2023-06-22T02:50:40;13.07;;;7.10;;
19679;SDS011;9989;48.962;9.182;2023-06-22T02:53:06;11.57;;;6.27;;
19679;SDS011;9989;48.962;9.182;2023-06-22T02:55:32;10.67;;;6.23;;
19679;SDS011;9989;48.962;9.182;2023-06-22T02:57:57;12.23;;;5.63;;
19679;SDS011;9989;48.962;9.182;2023-06-22T03:00:24;12.03;;;6.17;;
19679;SDS011;9989;48.962;9.182;2023-06-22T03:02:55;11.30;;;6.10;;
19679;SDS011;9989;48.962;9.182;2023-06-22T03:05:21;10.63;;;6.20;;
19679;SDS011;9989;48.962;9.182;2023-06-22T03:07:46;12.37;;;6.20;;
19679;SDS011;9989;48.962;9.182;2023-06-22T03:10:13;12.87;;;5.97;;
19679;SDS011;9989;48.962;9.182;2023-06-22T03:12:39;10.43;;;5.73;;
19679;SDS011;9989;48.962;9.182;2023-06-22T03:15:06;10.87;;;5.90;;
19679;SDS011;9989;48.962;9.182;2023-06-22T03:17:33;10.17;;;5.47;;
19679;SDS011;9989;48.962;9.182;2023-06-22T03:19:59;12.40;;;5.53;;
19679;SDS011;9989;48.962;9.182;2023-06-22T03:22:24;11.97;;;6.43;;
19679;SDS011;9989;48.962;9.182;2023-06-22T03:24:50;12.10;;;6.57;;
19679;SDS011;9989;48.962;9.182;2023-06-22T03:27:19;10.70;;;6.57;;
19679;SDS011;9989;48.962;9.182;2023-06-22T03:29:44;12.13;;;5.80;;
19679;SDS011;9989;48.962;9.182;2023-06-22T03:32:10;12.57;;;6.30;;
19679;SDS011;9989;48.962;9.182;2023-06-22T03:34:36;11.10;;;6.20;;
19679;SDS011;9989;48.962;9.182;2023-06-22T03:37:01;11.27;;;6.67;;
19679;SDS011;9989;48.962;9.182;2023-06-22T03:39:28;11.10;;;6.40;;
19679;SDS011;9989;48.962;9.182;2023-06-22T03:41:53;9.03;;;5.57;;
19679;SDS011;9989;48.962;9.182;2023-06-22T03:44:19;10.43;;;6.37;;
19679;SDS011;9989;48.962;9.182;2023-06-22T03:46:44;10.17;;;6.47;;
19679;SDS011;9989;48.962;9.182;2023-06-22T03:49:10;10.53;;;6.43;;
19679;SDS011;9989;48.962;9.182;2023-06-22T03:51:36;10.17;;;6.00;;
19679;SDS011;9989;48.962;9.182;2023-06-22T03:54:01;11.30;;;5.80;;
19679;SDS011;9989;48.962;9.182;2023-06-22T03:56:27;10.40;;;6.10;;
19679;SDS011;9989;48.962;9.182;2023-06-22T03:58:53;10.47;;;6.33;;
19679;SDS011;9989;48.962;9.182;2023-06-22T04:01:18;13.60;;;7.23;;
19679;SDS011;9989;48.962;9.182;2023-06-22T04:03:44;10.30;;;6.33;;
19679;SDS011;9989;48.962;9.182;2023-06-22T04:06:10;9.80;;;5.63;;
19679;SDS011;9989;48.962;9.182;2023-06-22T04:08:35;10.67;;;5.87;;
19679;SDS011;9989;48.962;9.182;2023-06-22T04:11:01;11.00;;;5.90;;
19679;SDS011;9989;48.962;9.182;2023-06-22T04:13:27;11.10;;;5.83;;
19679;SDS011;9989;48.962;9.182;2023-06-22T04:15:52;15.47;;;6.50;;
19679;SDS011;9989;48.962;9.182;2023-06-22T04:18:18;13.43;;;6.30;;
19679;SDS011;9989;48.962;9.182;2023-06-22T04:20:43;10.10;;;5.73;;
19679;SDS011;9989;48.962;9.182;2023-06-22T04:23:12;10.07;;;5.80;;
19679;SDS011;9989;48.962;9.182;2023-06-22T04:25:38;11.43;;;6.53;;
19679;SDS011;9989;48.962;9.182;2023-06-22T04:28:04;13.47;;;6.90;;
19679;SDS011;9989;48.962;9.182;2023-06-22T04:30:30;16.10;;;7.23;;
19679;SDS011;9989;48.962;9.182;2023-06-22T04:32:57;12.97;;;7.17;;
19679;SDS011;9989;48.962;9.182;2023-06-22T04:35:23;12.40;;;6.90;;
19679;SDS011;9989;48.962;9.182;2023-06-22T04:37:50;13.93;;;7.70;;
19679;SDS011;9989;48.962;9.182;2023-06-22T04:40:19;12.50;;;7.10;;
19679;SDS011;9989;48.962;9.182;2023-06-22T04:42:48;13.30;;;7.20;;
19679;SDS011;9989;48.962;9.182;2023-06-22T04:45:20;13.30;;;8.03;;
19679;SDS011;9989;48.962;9.182;2023-06-22T04:47:46;12.63;;;8.00;;
19679;SDS011;9989;48.962;9.182;2023-06-22T04:50:12;12.90;;;7.87;;
19679;SDS011;9989;48.962;9.182;2023-06-22T04:52:38;12.43;;;8.03;;
19679;SDS011;9989;48.962;9.182;2023-06-22T04:55:03;14.47;;;7.63;;
19679;SDS011;9989;48.962;9.182;2023-06-22T04:57:30;15.60;;;8.73;;
19679;SDS011;9989;48.962;9.182;2023-06-22T04:59:57;14.33;;;7.40;;
19679;SDS011;9989;48.962;9.182;2023-06-22T05:02:42;14.93;;;7.83;;
19679;SDS011;9989;48.962;9.182;2023-06-22T05:05:08;15.90;;;7.87;;
19679;SDS011;9989;48.962;9.182;2023-06-22T05:07:38;14.73;;;7.73;;
19679;SDS011;9989;48.962;9.182;2023-06-22T05:10:07;16.20;;;8.87;;
19679;SDS011;9989;48.962;9.182;2023-06-22T05:12:34;11.30;;;7.20;;
19679;SDS011;9989;48.962;9.182;2023-06-22T05:15:00;12.67;;;8.10;;
19679;SDS011;9989;48.962;9.182;2023-06-22T05:17:26;12.57;;;7.70;;
19679;SDS011;9989;48.962;9.182;2023-06-22T05:19:52;12.27;;;7.17;;
19679;SDS011;9989;48.962;9.182;2023-06-22T05:22:18;17.37;;;7.87;;
19679;SDS011;9989;48.962;9.182;2023-06-22T05:24:44;16.17;;;8.33;;
19679;SDS011;9989;48.962;9.182;2023-06-22T05:27:10;13.63;;;6.97;;
19679;SDS011;9989;48.962;9.182;2023-06-22T05:29:36;11.57;;;6.90;;
19679;SDS011;9989;48.962;9.182;2023-06-22T05:32:02;13.10;;;7.53;;
19679;SDS011;9989;48.962;9.182;2023-06-22T05:34:28;12.47;;;7.00;;
19679;SDS011;9989;48.962;9.182;2023-06-22T05:36:54;11.03;;;6.70;;
19679;SDS011;9989;48.962;9.182;2023-06-22T05:39:20;11.87;;;7.70;;
19679;SDS011;9989;48.962;9.182;2023-06-22T05:41:46;15.43;;;7.27;;
19679;SDS011;9989;48.962;9.182;2023-06-22T05:44:11;13.80;;;7.50;;
19679;SDS011;9989;48.962;9.182;2023-06-22T05:46:40;12.73;;;7.43;;
19679;SDS011;9989;48.962;9.182;2023-06-22T05:49:09;12.77;;;6.93;;
19679;SDS011;9989;48.962;9.182;2023-06-22T05:51:36;15.80;;;7.40;;
19679;SDS011;9989;48.962;9.182;2023-06-22T05:54:02;13.20;;;6.70;;
19679;SDS011;9989;48.962;9.182;2023-06-22T05:56:28;15.90;;;8.07;;
19679;SDS011;9989;48.962;9.182;2023-06-22T05:58:53;12.13;;;6.60;;
19679;SDS011;9989;48.962;9.182;2023-06-22T06:01:19;12.87;;;7.97;;
19679;SDS011;9989;48.962;9.182;2023-06-22T06:03:45;12.57;;;7.30;;
19679;SDS011;9989;48.962;9.182;2023-06-22T06:06:11;12.77;;;7.10;;
19679;SDS011;9989;48.962;9.182;2023-06-22T06:08:37;13.20;;;7.13;;
19679;SDS011;9989;48.962;9.182;2023-06-22T06:11:03;14.50;;;7.47;;
19679;SDS011;9989;48.962;9.182;2023-06-22T06:13:29;13.80;;;7.90;;
19679;SDS011;9989;48.962;9.182;2023-06-22T06:15:56;12.43;;;7.63;;
19679;SDS011;9989;48.962;9.182;2023-06-22T06:18:22;12.30;;;7.07;;
19679;SDS011;9989;48.962;9.182;2023-06-22T06:20:48;13.40;;;7.17;;
19679;SDS011;9989;48.962;9.182;2023-06-22T06:23:14;12.40;;;7.00;;
19679;SDS011;9989;48.962;9.182;2023-06-22T06:25:39;14.67;;;7.40;;
19679;SDS011;9989;48.962;9.182;2023-06-22T06:28:05;14.10;;;6.77;;
19679;SDS011;9989;48.962;9.182;2023-06-22T06:30:31;10.23;;;6.27;;
19679;SDS011;9989;48.962;9.182;2023-06-22T06:32:57;11.47;;;6.40;;
19679;SDS011;9989;48.962;9.182;2023-06-22T06:35:23;12.97;;;7.67;;
19679;SDS011;9989;48.962;9.182;2023-06-22T06:37:49;12.07;;;6.87;;
19679;SDS011;9989;48.962;9.182;2023-06-22T06:40:16;20.13;;;7.30;;
19679;SDS011;9989;48.962;9.182;2023-06-22T06:42:44;15.03;;;7.33;;
19679;SDS011;9989;48.962;9.182;2023-06-22T06:45:11;13.00;;;7.30;;
19679;SDS011;9989;48.962;9.182;2023-06-22T06:47:38;13.10;;;8.07;;
19679;SDS011;9989;48.962;9.182;2023-06-22T06:50:04;16.83;;;6.73;;
19679;SDS011;9989;48.962;9.182;2023-06-22T06:52:31;11.60;;;7.23;;
19679;SDS011;9989;48.962;9.182;2023-06-22T06:54:56;11.77;;;7.10;;
19679;SDS011;9989;48.962;9.182;2023-06-22T06:57:22;10.57;;;6.43;;
19679;SDS011;9989;48.962;9.182;2023-06-22T06:59:48;14.87;;;7.23;;
19679;SDS011;9989;48.962;9.182;2023-06-22T07:02:15;13.20;;;7.57;;
19679;SDS011;9989;48.962;9.182;2023-06-22T07:04:41;12.37;;;6.50;;
19679;SDS011;9989;48.962;9.182;2023-06-22T07:07:06;13.20;;;6.43;;
19679;SDS011;9989;48.962;9.182;2023-06-22T07:09:32;13.40;;;7.17;;
19679;SDS011;9989;48.962;9.182;2023-06-22T07:11:58;11.97;;;7.17;;
19679;SDS011;9989;48.962;9.182;2023-06-22T07:14:23;13.63;;;7.10;;
19679;SDS011;9989;48.962;9.182;2023-06-22T07:16:49;13.27;;;7.20;;
19679;SDS011;9989;48.962;9.182;2023-06-22T07:19:15;11.40;;;6.30;;
19679;SDS011;9989;48.962;9.182;2023-06-22T07:21:40;13.23;;;6.33;;
19679;SDS011;9989;48.962;9.182;2023-06-22T07:24:06;11.40;;;6.60;;
19679;SDS011;9989;48.962;9.182;2023-06-22T07:26:32;10.60;;;5.90;;
19679;SDS011;9989;48.962;9.182;2023-06-22T07:28:58;11.37;;;5.97;;
19679;SDS011;9989;48.962;9.182;2023-06-22T07:31:24;10.03;;;6.20;;
19679;SDS011;9989;48.962;9.182;2023-06-22T07:33:50;11.57;;;6.37;;
19679;SDS011;9989;48.962;9.182;2023-06-22T07:36:16;12.53;;;5.77;;
19679;SDS011;9989;48.962;9.182;2023-06-22T07:38:42;12.57;;;5.87;;
19679;SDS011;9989;48.962;9.182;2023-06-22T07:41:08;12.93;;;6.63;;
19679;SDS011;9989;48.962;9.182;2023-06-22T07:43:33;13.13;;;7.07;;
19679;SDS011;9989;48.962;9.182;2023-06-22T07:46:02;14.70;;;6.47;;
19679;SDS011;9989;48.962;9.182;2023-06-22T07:48:28;11.27;;;6.17;;
19679;SDS011;9989;48.962;9.182;2023-06-22T07:50:54;15.90;;;6.03;;
19679;SDS011;9989;48.962;9.182;2023-06-22T07:53:20;14.17;;;6.50;;
19679;SDS011;9989;48.962;9.182;2023-06-22T07:55:46;14.70;;;7.00;;
19679;SDS011;9989;48.962;9.182;2023-06-22T07:58:12;13.80;;;6.70;;
19679;SDS011;9989;48.962;9.182;2023-06-22T08:00:38;11.37;;;5.97;;
19679;SDS011;9989;48.962;9.182;2023-06-22T08:03:04;13.63;;;6.57;;
19679;SDS011;9989;48.962;9.182;2023-06-22T08:05:30;13.97;;;6.13;;
19679;SDS011;9989;48.962;9.182;2023-06-22T08:07:56;10.40;;;5.93;;
19679;SDS011;9989;48.962;9.182;2023-06-22T08:10:22;11.57;;;6.03;;
19679;SDS011;9989;48.962;9.182;2023-06-22T08:12:48;11.87;;;5.80;;
19679;SDS011;9989;48.962;9.182;2023-06-22T08:15:14;9.20;;;4.97;;
19679;SDS011;9989;48.962;9.182;2023-06-22T08:17:42;10.07;;;5.70;;
19679;SDS011;9989;48.962;9.182;2023-06-22T08:20:08;10.43;;;6.00;;
19679;SDS011;9989;48.962;9.182;2023-06-22T08:22:36;14.70;;;5.60;;
19679;SDS011;9989;48.962;9.182;2023-06-22T08:25:02;10.90;;;5.97;;
19679;SDS011;9989;48.962;9.182;2023-06-22T08:27:29;11.80;;;6.03;;
19679;SDS011;9989;48.962;9.182;2023-06-22T08:29:59;9.40;;;5.20;;
19679;SDS011;9989;48.962;9.182;2023-06-22T08:32:25;10.90;;;5.43;;
19679;SDS011;9989;48.962;9.182;2023-06-22T08:34:54;8.97;;;5.20;;
19679;SDS011;9989;48.962;9.182;2023-06-22T08:37:21;10.83;;;5.77;;
19679;SDS011;9989;48.962;9.182;2023-06-22T08:39:50;12.67;;;6.27;;
19679;SDS011;9989;48.962;9.182;2023-06-22T08:42:15;10.97;;;5.30;;
19679;SDS011;9989;48.962;9.182;2023-06-22T08:44:41;10.50;;;6.43;;
19679;SDS011;9989;48.962;9.182;2023-06-22T08:47:07;16.60;;;7.47;;
19679;SDS011;9989;48.962;9.182;2023-06-22T08:49:32;11.00;;;6.43;;
19679;SDS011;9989;48.962;9.182;2023-06-22T08:51:58;10.83;;;5.90;;
19679;SDS011;9989;48.962;9.182;2023-06-22T08:54:24;12.13;;;7.07;;
19679;SDS011;9989;48.962;9.182;2023-06-22T08:56:49;12.17;;;5.80;;
19679;SDS011;9989;48.962;9.182;2023-06-22T08:59:15;10.50;;;5.40;;
19679;SDS011;9989;48.962;9.182;2023-06-22T09:01:41;13.47;;;6.20;;
19679;SDS011;9989;48.962;9.182;2023-06-22T09:04:10;10.50;;;5.73;;
19679;SDS011;9989;48.962;9.182;2023-06-22T09:06:36;12.10;;;5.53;;
19679;SDS011;9989;48.962;9.182;2023-06-22T09:09:09;14.53;;;6.60;;
19679;SDS011;9989;48.962;9.182;2023-06-22T09:11:36;13.23;;;6.20;;
19679;SDS011;9989;48.962;9.182;2023-06-22T09:14:01;13.60;;;6.33;;
19679;SDS011;9989;48.962;9.182;2023-06-22T09:16:28;11.60;;;6.23;;
19679;SDS011;9989;48.962;9.182;2023-06-22T09:18:54;11.07;;;5.83;;
19679;SDS011;9989;48.962;9.182;2023-06-22T09:21:20;11.93;;;6.10;;
19679;SDS011;9989;48.962;9.182;2023-06-22T09:23:45;11.07;;;5.47;;
19679;SDS011;9989;48.962;9.182;2023-06-22T09:26:15;10.70;;;5.73;;
19679;SDS011;9989;48.962;9.182;2023-06-22T09:28:41;11.07;;;5.33;;
19679;SDS011;9989;48.962;9.182;2023-06-22T09:31:06;9.73;;;5.70;;
19679;SDS011;9989;48.962;9.182;2023-06-22T09:33:32;9.80;;;5.17;;
19679;SDS011;9989;48.962;9.182;2023-06-22T09:35:58;12.03;;;5.67;;
19679;SDS011;9989;48.962;9.182;2023-06-22T09:38:23;12.57;;;5.80;;
19679;SDS011;9989;48.962;9.182;2023-06-22T09:40:49;12.20;;;6.13;;
19679;SDS011;9989;48.962;9.182;2023-06-22T09:43:14;10.80;;;6.23;;
19679;SDS011;9989;48.962;9.182;2023-06-22T09:45:41;13.50;;;5.93;;
19679;SDS011;9989;48.962;9.182;2023-06-22T09:48:07;13.17;;;6.07;;
19679;SDS011;9989;48.962;9.182;2023-06-22T09:50:34;14.10;;;5.77;;
19679;SDS011;9989;48.962;9.182;2023-06-22T09:53:01;16.03;;;6.53;;
19679;SDS011;9989;48.962;9.182;2023-06-22T09:55:27;12.60;;;6.00;;
19679;SDS011;9989;48.962;9.182;2023-06-22T09:57:52;13.10;;;6.20;;
19679;SDS011;9989;48.962;9.182;2023-06-22T10:00:19;12.23;;;6.07;;
19679;SDS011;9989;48.962;9.182;2023-06-22T10:02:46;13.93;;;6.37;;
19679;SDS011;9989;48.962;9.182;2023-06-22T10:05:12;9.37;;;5.00;;
19679;SDS011;9989;48.962;9.182;2023-06-22T10:07:38;11.37;;;6.10;;
19679;SDS011;9989;48.962;9.182;2023-06-22T10:10:07;9.53;;;5.63;;
19679;SDS011;9989;48.962;9.182;2023-06-22T10:12:33;9.73;;;5.60;;
19679;SDS011;9989;48.962;9.182;2023-06-22T10:14:59;10.33;;;5.77;;
19679;SDS011;9989;48.962;9.182;2023-06-22T10:17:24;10.83;;;6.00;;
19679;SDS011;9989;48.962;9.182;2023-06-22T10:19:50;11.83;;;6.10;;
19679;SDS011;9989;48.962;9.182;2023-06-22T10:22:16;11.33;;;5.90;;
19679;SDS011;9989;48.962;9.182;2023-06-22T10:24:41;9.50;;;5.50;;
19679;SDS011;9989;48.962;9.182;2023-06-22T10:27:11;12.07;;;6.40;;
19679;SDS011;9989;48.962;9.182;2023-06-22T10:29:37;10.83;;;6.40;;
19679;SDS011;9989;48.962;9.182;2023-06-22T10:32:03;11.37;;;5.63;;
19679;SDS011;9989;48.962;9.182;2023-06-22T10:34:29;12.70;;;6.53;;
19679;SDS011;9989;48.962;9.182;2023-06-22T10:36:54;11.00;;;6.17;;
19679;SDS011;9989;48.962;9.182;2023-06-22T10:39:20;14.47;;;6.00;;
19679;SDS011;9989;48.962;9.182;2023-06-22T10:41:46;14.07;;;6.77;;
19679;SDS011;9989;48.962;9.182;2023-06-22T10:44:11;13.00;;;5.60;;
19679;SDS011;9989;48.962;9.182;2023-06-22T10:46:38;12.10;;;6.10;;
19679;SDS011;9989;48.962;9.182;2023-06-22T10:49:04;13.77;;;6.03;;
19679;SDS011;9989;48.962;9.182;2023-06-22T10:51:30;10.33;;;5.40;;
19679;SDS011;9989;48.962;9.182;2023-06-22T10:53:56;10.83;;;5.83;;
19679;SDS011;9989;48.962;9.182;2023-06-22T10:56:22;12.10;;;5.87;;
19679;SDS011;9989;48.962;9.182;2023-06-22T10:58:47;9.70;;;4.97;;
19679;SDS011;9989;48.962;9.182;2023-06-22T11:01:13;10.30;;;5.53;;
19679;SDS011;9989;48.962;9.182;2023-06-22T11:03:39;15.40;;;5.90;;
19679;SDS011;9989;48.962;9.182;2023-06-22T11:06:05;11.43;;;5.87;;
19679;SDS011;9989;48.962;9.182;2023-06-22T11:08:30;10.70;;;5.87;;
19679;SDS011;9989;48.962;9.182;2023-06-22T11:10:56;13.07;;;5.67;;
19679;SDS011;9989;48.962;9.182;2023-06-22T11:13:22;10.60;;;4.90;;
19679;SDS011;9989;48.962;9.182;2023-06-22T11:15:47;8.03;;;4.63;;
19679;SDS011;9989;48.962;9.182;2023-06-22T11:18:13;10.87;;;5.23;;
19679;SDS011;9989;48.962;9.182;2023-06-22T11:20:39;9.83;;;4.93;;
19679;SDS011;9989;48.962;9.182;2023-06-22T11:23:05;10.17;;;5.13;;
19679;SDS011;9989;48.962;9.182;2023-06-22T11:25:31;11.87;;;5.60;;
19679;SDS011;9989;48.962;9.182;2023-06-22T11:27:59;11.63;;;5.50;;
19679;SDS011;9989;48.962;9.182;2023-06-22T11:30:26;8.70;;;4.70;;
19679;SDS011;9989;48.962;9.182;2023-06-22T11:32:52;8.80;;;4.63;;
19679;SDS011;9989;48.962;9.182;2023-06-22T11:35:18;11.13;;;5.40;;
19679;SDS011;9989;48.962;9.182;2023-06-22T11:37:46;10.53;;;5.27;;
19679;SDS011;9989;48.962;9.182;2023-06-22T11:40:12;16.23;;;5.53;;
19679;SDS011;9989;48.962;9.182;2023-06-22T11:42:37;12.17;;;5.57;;
19679;SDS011;9989;48.962;9.182;2023-06-22T11:45:04;10.07;;;4.83;;
19679;SDS011;9989;48.962;9.182;2023-06-22T11:47:31;10.57;;;5.83;;
19679;SDS011;9989;48.962;9.182;2023-06-22T11:50:00;9.97;;;5.13;;
19679;SDS011;9989;48.962;9.182;2023-06-22T11:52:26;9.23;;;4.90;;
19679;SDS011;9989;48.962;9.182;2023-06-22T11:54:52;9.17;;;4.80;;
19679;SDS011;9989;48.962;9.182;2023-06-22T11:57:17;9.83;;;4.50;;
19679;SDS011;9989;48.962;9.182;2023-06-22T11:59:43;12.13;;;5.57;;
19679;SDS011;9989;48.962;9.182;2023-06-22T12:02:09;13.33;;;5.77;;
19679;SDS011;9989;48.962;9.182;2023-06-22T12:04:34;14.07;;;5.70;;
19679;SDS011;9989;48.962;9.182;2023-06-22T12:07:00;15.57;;;5.87;;
19679;SDS011;9989;48.962;9.182;2023-06-22T12:09:26;10.50;;;5.67;;
19679;SDS011;9989;48.962;9.182;2023-06-22T12:11:51;14.17;;;6.47;;
19679;SDS011;9989;48.962;9.182;2023-06-22T12:14:17;11.97;;;5.73;;
19679;SDS011;9989;48.962;9.182;2023-06-22T12:16:43;16.57;;;5.70;;
19679;SDS011;9989;48.962;9.182;2023-06-22T12:19:09;17.87;;;6.43;;
19679;SDS011;9989;48.962;9.182;2023-06-22T12:21:35;15.03;;;5.77;;
19679;SDS011;9989;48.962;9.182;2023-06-22T12:24:02;14.53;;;5.90;;
19679;SDS011;9989;48.962;9.182;2023-06-22T12:26:27;16.70;;;6.13;;
19679;SDS011;9989;48.962;9.182;2023-06-22T12:28:53;13.80;;;6.70;;
19679;SDS011;9989;48.962;9.182;2023-06-22T12:31:19;13.03;;;5.40;;
19679;SDS011;9989;48.962;9.182;2023-06-22T12:33:44;11.27;;;5.10;;
19679;SDS011;9989;48.962;9.182;2023-06-22T12:36:10;12.60;;;5.17;;
19679;SDS011;9989;48.962;9.182;2023-06-22T12:38:35;14.97;;;6.07;;
19679;SDS011;9989;48.962;9.182;2023-06-22T12:41:06;14.53;;;6.23;;
19679;SDS011;9989;48.962;9.182;2023-06-22T12:43:32;13.47;;;5.37;;
19679;SDS011;9989;48.962;9.182;2023-06-22T12:45:57;17.47;;;5.83;;
19679;SDS011;9989;48.962;9.182;2023-06-22T12:48:24;11.67;;;5.37;;
19679;SDS011;9989;48.962;9.182;2023-06-22T12:50:51;10.53;;;5.50;;
19679;SDS011;9989;48.962;9.182;2023-06-22T12:53:16;12.30;;;5.83;;
19679;SDS011;9989;48.962;9.182;2023-06-22T12:55:42;15.23;;;5.63;;
19679;SDS011;9989;48.962;9.182;2023-06-22T12:58:08;11.20;;;5.83;;
19679;SDS011;9989;48.962;9.182;2023-06-22T13:00:33;14.43;;;5.87;;
19679;SDS011;9989;48.962;9.182;2023-06-22T13:02:59;12.20;;;5.03;;
19679;SDS011;9989;48.962;9.182;2023-06-22T13:05:24;10.13;;;5.20;;
19679;SDS011;9989;48.962;9.182;2023-06-22T13:07:50;19.97;;;6.20;;
19679;SDS011;9989;48.962;9.182;2023-06-22T13:10:16;11.93;;;5.03;;
19679;SDS011;9989;48.962;9.182;2023-06-22T13:12:41;10.20;;;5.37;;
19679;SDS011;9989;48.962;9.182;2023-06-22T13:15:07;12.13;;;6.07;;
19679;SDS011;9989;48.962;9.182;2023-06-22T13:17:33;11.83;;;5.20;;
19679;SDS011;9989;48.962;9.182;2023-06-22T13:19:58;12.93;;;6.47;;
19679;SDS011;9989;48.962;9.182;2023-06-22T13:22:25;15.10;;;5.40;;
19679;SDS011;9989;48.962;9.182;2023-06-22T13:24:57;12.93;;;5.37;;
19679;SDS011;9989;48.962;9.182;2023-06-22T13:27:23;11.10;;;5.23;;
19679;SDS011;9989;48.962;9.182;2023-06-22T13:29:49;14.97;;;6.67;;
19679;SDS011;9989;48.962;9.182;2023-06-22T13:32:15;16.07;;;5.50;;
19679;SDS011;9989;48.962;9.182;2023-06-22T13:34:41;11.67;;;5.80;;
19679;SDS011;9989;48.962;9.182;2023-06-22T13:37:07;13.00;;;5.40;;
19679;SDS011;9989;48.962;9.182;2023-06-22T13:39:32;12.67;;;6.33;;
19679;SDS011;9989;48.962;9.182;2023-06-22T13:41:58;10.83;;;6.27;;
19679;SDS011;9989;48.962;9.182;2023-06-22T13:44:24;12.10;;;5.90;;
19679;SDS011;9989;48.962;9.182;2023-06-22T13:46:53;11.43;;;5.10;;
19679;SDS011;9989;48.962;9.182;2023-06-22T13:49:22;9.43;;;5.13;;
19679;SDS011;9989;48.962;9.182;2023-06-22T13:51:48;14.20;;;5.60;;
19679;SDS011;9989;48.962;9.182;2023-06-22T13:54:14;14.77;;;5.30;;
19679;SDS011;9989;48.962;9.182;2023-06-22T13:56:40;14.70;;;5.77;;
19679;SDS011;9989;48.962;9.182;2023-06-22T13:59:05;12.47;;;6.07;;
19679;SDS011;9989;48.962;9.182;2023-06-22T14:01:35;11.10;;;6.13;;
19679;SDS011;9989;48.962;9.182;2023-06-22T14:04:01;9.77;;;5.53;;
19679;SDS011;9989;48.962;9.182;2023-06-22T14:06:27;13.63;;;5.67;;
19679;SDS011;9989;48.962;9.182;2023-06-22T14:08:52;14.67;;;6.63;;
19679;SDS011;9989;48.962;9.182;2023-06-22T14:11:18;12.27;;;6.23;;
19679;SDS011;9989;48.962;9.182;2023-06-22T14:13:44;14.53;;;6.23;;
19679;SDS011;9989;48.962;9.182;2023-06-22T14:16:09;10.33;;;5.20;;
19679;SDS011;9989;48.962;9.182;2023-06-22T14:18:35;17.07;;;6.10;;
19679;SDS011;9989;48.962;9.182;2023-06-22T14:21:01;14.83;;;6.43;;
19679;SDS011;9989;48.962;9.182;2023-06-22T14:23:27;18.83;;;7.23;;
19679;SDS011;9989;48.962;9.182;2023-06-22T14:25:52;14.77;;;5.63;;
19679;SDS011;9989;48.962;9.182;2023-06-22T14:28:18;14.63;;;5.63;;
19679;SDS011;9989;48.962;9.182;2023-06-22T14:30:44;10.67;;;5.50;;
19679;SDS011;9989;48.962;9.182;2023-06-22T14:33:11;12.83;;;5.60;;
19679;SDS011;9989;48.962;9.182;2023-06-22T14:35:37;12.03;;;5.60;;
19679;SDS011;9989;48.962;9.182;2023-06-22T14:38:03;10.83;;;5.70;;
19679;SDS011;9989;48.962;9.182;2023-06-22T14:40:28;13.17;;;6.20;;
19679;SDS011;9989;48.962;9.182;2023-06-22T14:42:54;13.17;;;6.67;;
19679;SDS011;9989;48.962;9.182;2023-06-22T14:45:21;12.23;;;5.90;;
19679;SDS011;9989;48.962;9.182;2023-06-22T14:47:48;19.83;;;6.93;;
19679;SDS011;9989;48.962;9.182;2023-06-22T14:50:13;28.80;;;7.20;;
19679;SDS011;9989;48.962;9.182;2023-06-22T14:52:42;13.63;;;6.13;;
19679;SDS011;9989;48.962;9.182;2023-06-22T14:55:08;14.73;;;6.87;;
19679;SDS011;9989;48.962;9.182;2023-06-22T14:57:34;14.77;;;6.67;;